Aérodrome :
LOGIN :

S'inscrire | Disclaimer

   EN    FR    IT 

 










Légende :    VFR   VFR Marginal   IFR   IFR Intensif   IFR Très Intensif
Visi : 
Plafond : 
>= 8 km
>= 3000ft
5 à 8 km
1000 à 3000 ft
1500m à 5 km
500 à 1000 ft
800 à 1500m
200 à 500 ft
< 800m
< 200 ft
Symboles :   Orages  Brouillard  Fortes neiges  Fortes précipitations  Vent > 20 kt
SIGMETs :   Divers  Orages  Givrage  Turbulence  Onde Orograph.  Cendres Volcan.






- Altitude de l'aérodrome : 1568 ft


ETSB - Büchel AB

DERNIER METAR :
  • 201020Z 21004KT 9999 FEW028 12/02 Q1017 BLU+BLU+ TEMPO WHT

METARs EXPIRÉS :
  • 200920Z 11004KT 9999 FEW020 10/03 Q1017 BLU+BLU+
  • 200820Z 12004KT 9999 FEW020 09/04 Q1017 BLU+BLU+

TAF TAF ETSB
Valide du 20 à 11h jusqu'au 20 à 20h UTC


201005Z 2011/2020 09005KT 9999 NSW SCT030
TEMPO 2011/2018 11008KT 6000 -SHRA BKN020TCU BY ETGL



MET'MAP, la Météo Aéronautique d'un coup d'oeil ! - Copyright ORBIFLY Décembre 2007 - Disclaimer

ORBIFLY MET'MAP TEAM :

Programmation & Développement : Alexandra Zaïnal
Sur une idée originale de : Baudouin d'Aumeries
Assistance à la programmation : Marc-Olivier Méhu
Soutien technique & logistique : Manuel Goepfert

Contact : metmap@orbifly.com




SOURCES & CREDITS :

   NOAA